Архив погоды в Донецке за Декабрь, 2018 год

icon
Год:Все20022003200420052006200720082009201020112012201320142015201620172018
Месяц:ЯнварьФевральМартАпрельМайИюньИюльАвгустСентябрьОктябрьНоябрьДекабрь
Дата Облачность Температура (д/н), °C Давление, мм Влажность, % Ветер, м/с
01.12.2018 Облачность пасмурно -3 / -1 742 97 В, 5
02.12.2018 Облачность пасмурно -4 / -8 744 93 З, 1
03.12.2018 Облачность пасмурно -2 / -3 744 98 В, 1
04.12.2018 Облачность пасмурно -2 / -1 742 100 В, 2
05.12.2018 Облачность пасмурно +1 / +0 737 100 В, 3
06.12.2018 Облачность дождь +1 / +0 737 100 С, 2
07.12.2018 Облачность пасмурно -1 / -3 737 96 С-З, 1
08.12.2018 Облачность пасмурно -2 / -2 740 90 З, 2
09.12.2018 Облачность пасмурно +2 / +2 737 89 Ю-В, 4
10.12.2018 Облачность дождь +1 / +1 731 96 В, 3
11.12.2018 Облачность дождь +2 / +2 736 99 В, 4
12.12.2018 Облачность дождь +1 / +0 734 97 Ю-З, 5
13.12.2018 Облачность пасмурно +0 / -5 744 72 Ю-З, 4
14.12.2018 Облачность ясно +2 / -4 746 50 З, 2
15.12.2018 Облачность снег -1 / -6 752 59 С-З, 3
16.12.2018 Облачность ясно -3 / -7 755 62 С-В, 1
17.12.2018 Облачность ясно -4 / -9 752 60 В, 2
18.12.2018 Облачность пасмурно -2 / -4 752 65 В, 2
19.12.2018 Облачность ясно +0 / -7 750 66 С-В, 1
20.12.2018 Облачность дождь +1 / +2 747 92 Ю-В, 4
21.12.2018 Облачность дождь +5 / +2 738 96 Ю, 3
22.12.2018 Облачность дождь +4 / +5 740 93 Ю, 4
31.12.2018 Облачность пасмурно +2 / +2 736 100 В, 2
icon
Облачность:дождь дождь
Темп. днем:1..3 °C
Темп. ночью:1..3 °C
Давление:736 мм
Влажность:99 %
Ветер:В, 4 м/с
icon
USDusd27,78(-0,04742)
RUBrub0,42(+0,00356)
EUReur31,74(+0,09607)
icon
Вт. 11 Декабрь 2018
icon
Логин:
Код: ---
 
Реклама
icon